sensor_id;sensor_type;location;lat;lon;timestamp;P1;durP1;ratioP1;P2;durP2;ratioP2
49175;SDS011;35012;47.200;9.748;2024-03-22T00:01:25;3.37;;;2.40;;
49175;SDS011;35012;47.200;9.748;2024-03-22T00:03:50;2.37;;;2.27;;
49175;SDS011;35012;47.200;9.748;2024-03-22T00:06:15;2.43;;;2.33;;
49175;SDS011;35012;47.200;9.748;2024-03-22T00:08:41;2.50;;;2.40;;
49175;SDS011;35012;47.200;9.748;2024-03-22T00:11:06;2.30;;;2.20;;
49175;SDS011;35012;47.200;9.748;2024-03-22T00:13:32;2.30;;;2.20;;
49175;SDS011;35012;47.200;9.748;2024-03-22T00:15:57;2.27;;;2.17;;
49175;SDS011;35012;47.200;9.748;2024-03-22T00:18:22;2.53;;;2.43;;
49175;SDS011;35012;47.200;9.748;2024-03-22T00:20:48;2.53;;;2.43;;
49175;SDS011;35012;47.200;9.748;2024-03-22T00:23:13;2.23;;;2.13;;
49175;SDS011;35012;47.200;9.748;2024-03-22T00:25:39;2.70;;;2.60;;
49175;SDS011;35012;47.200;9.748;2024-03-22T00:28:04;2.10;;;2.00;;
49175;SDS011;35012;47.200;9.748;2024-03-22T00:30:30;2.20;;;2.10;;
49175;SDS011;35012;47.200;9.748;2024-03-22T00:32:55;2.30;;;2.20;;
49175;SDS011;35012;47.200;9.748;2024-03-22T00:35:20;2.40;;;2.30;;
49175;SDS011;35012;47.200;9.748;2024-03-22T00:37:46;2.30;;;2.20;;
49175;SDS011;35012;47.200;9.748;2024-03-22T00:40:11;2.57;;;2.40;;
49175;SDS011;35012;47.200;9.748;2024-03-22T00:42:37;2.33;;;2.23;;
49175;SDS011;35012;47.200;9.748;2024-03-22T00:45:02;2.17;;;2.07;;
49175;SDS011;35012;47.200;9.748;2024-03-22T00:47:28;2.33;;;2.23;;
49175;SDS011;35012;47.200;9.748;2024-03-22T00:49:53;2.43;;;2.33;;
49175;SDS011;35012;47.200;9.748;2024-03-22T00:52:18;2.30;;;2.20;;
49175;SDS011;35012;47.200;9.748;2024-03-22T00:54:44;2.33;;;2.23;;
49175;SDS011;35012;47.200;9.748;2024-03-22T00:57:09;2.50;;;2.40;;
49175;SDS011;35012;47.200;9.748;2024-03-22T00:59:35;2.43;;;2.33;;
49175;SDS011;35012;47.200;9.748;2024-03-22T01:02:00;1.83;;;1.83;;
49175;SDS011;35012;47.200;9.748;2024-03-22T01:04:26;2.00;;;1.93;;
49175;SDS011;35012;47.200;9.748;2024-03-22T01:06:51;2.50;;;2.40;;
49175;SDS011;35012;47.200;9.748;2024-03-22T01:09:16;2.30;;;2.20;;
49175;SDS011;35012;47.200;9.748;2024-03-22T01:11:42;2.27;;;2.17;;
49175;SDS011;35012;47.200;9.748;2024-03-22T01:14:07;3.37;;;3.17;;
49175;SDS011;35012;47.200;9.748;2024-03-22T01:16:33;2.50;;;2.40;;
49175;SDS011;35012;47.200;9.748;2024-03-22T01:18:58;2.63;;;2.53;;
49175;SDS011;35012;47.200;9.748;2024-03-22T01:21:24;2.60;;;2.50;;
49175;SDS011;35012;47.200;9.748;2024-03-22T01:23:53;2.73;;;2.63;;
49175;SDS011;35012;47.200;9.748;2024-03-22T01:26:19;2.10;;;2.00;;
49175;SDS011;35012;47.200;9.748;2024-03-22T01:28:44;2.37;;;2.27;;
49175;SDS011;35012;47.200;9.748;2024-03-22T01:31:10;2.50;;;2.40;;
49175;SDS011;35012;47.200;9.748;2024-03-22T01:33:35;2.20;;;2.10;;
49175;SDS011;35012;47.200;9.748;2024-03-22T01:36:01;2.80;;;2.70;;
49175;SDS011;35012;47.200;9.748;2024-03-22T01:38:26;2.40;;;2.30;;
49175;SDS011;35012;47.200;9.748;2024-03-22T01:40:51;2.43;;;2.33;;
49175;SDS011;35012;47.200;9.748;2024-03-22T01:43:17;2.13;;;2.03;;
49175;SDS011;35012;47.200;9.748;2024-03-22T01:45:42;1.80;;;1.80;;
49175;SDS011;35012;47.200;9.748;2024-03-22T01:48:08;2.43;;;2.33;;
49175;SDS011;35012;47.200;9.748;2024-03-22T01:50:33;2.20;;;2.10;;
49175;SDS011;35012;47.200;9.748;2024-03-22T01:52:59;2.23;;;2.13;;
49175;SDS011;35012;47.200;9.748;2024-03-22T01:55:25;2.30;;;2.20;;
49175;SDS011;35012;47.200;9.748;2024-03-22T01:57:51;2.77;;;2.67;;
49175;SDS011;35012;47.200;9.748;2024-03-22T02:00:18;2.30;;;2.20;;
49175;SDS011;35012;47.200;9.748;2024-03-22T02:02:44;2.07;;;1.97;;
49175;SDS011;35012;47.200;9.748;2024-03-22T02:05:13;1.93;;;1.87;;
49175;SDS011;35012;47.200;9.748;2024-03-22T02:07:38;2.40;;;2.30;;
49175;SDS011;35012;47.200;9.748;2024-03-22T02:10:04;2.50;;;2.40;;
49175;SDS011;35012;47.200;9.748;2024-03-22T02:12:30;2.70;;;2.60;;
49175;SDS011;35012;47.200;9.748;2024-03-22T02:14:57;2.57;;;2.47;;
49175;SDS011;35012;47.200;9.748;2024-03-22T02:17:23;2.50;;;2.40;;
49175;SDS011;35012;47.200;9.748;2024-03-22T02:19:48;2.70;;;2.60;;
49175;SDS011;35012;47.200;9.748;2024-03-22T02:22:14;2.20;;;2.10;;
49175;SDS011;35012;47.200;9.748;2024-03-22T02:24:39;2.60;;;2.50;;
49175;SDS011;35012;47.200;9.748;2024-03-22T02:27:05;2.50;;;2.40;;
49175;SDS011;35012;47.200;9.748;2024-03-22T02:29:30;2.83;;;2.73;;
49175;SDS011;35012;47.200;9.748;2024-03-22T02:31:55;2.97;;;2.77;;
49175;SDS011;35012;47.200;9.748;2024-03-22T02:34:23;2.53;;;2.43;;
49175;SDS011;35012;47.200;9.748;2024-03-22T02:36:49;2.10;;;2.00;;
49175;SDS011;35012;47.200;9.748;2024-03-22T02:39:14;3.10;;;2.70;;
49175;SDS011;35012;47.200;9.748;2024-03-22T02:41:40;2.93;;;2.83;;
49175;SDS011;35012;47.200;9.748;2024-03-22T02:44:06;2.43;;;2.33;;
49175;SDS011;35012;47.200;9.748;2024-03-22T02:46:31;2.80;;;2.70;;
49175;SDS011;35012;47.200;9.748;2024-03-22T02:48:57;2.90;;;2.80;;
49175;SDS011;35012;47.200;9.748;2024-03-22T02:51:22;2.80;;;2.70;;
49175;SDS011;35012;47.200;9.748;2024-03-22T02:53:48;2.80;;;2.70;;
49175;SDS011;35012;47.200;9.748;2024-03-22T02:56:13;2.87;;;2.77;;
49175;SDS011;35012;47.200;9.748;2024-03-22T02:58:39;2.60;;;2.50;;
49175;SDS011;35012;47.200;9.748;2024-03-22T03:01:04;2.57;;;2.47;;
49175;SDS011;35012;47.200;9.748;2024-03-22T03:03:31;2.60;;;2.50;;
49175;SDS011;35012;47.200;9.748;2024-03-22T03:05:56;2.67;;;2.57;;
49175;SDS011;35012;47.200;9.748;2024-03-22T03:08:21;2.80;;;2.70;;
49175;SDS011;35012;47.200;9.748;2024-03-22T03:10:47;2.37;;;2.27;;
49175;SDS011;35012;47.200;9.748;2024-03-22T03:13:12;2.47;;;2.37;;
49175;SDS011;35012;47.200;9.748;2024-03-22T03:15:38;2.33;;;2.23;;
49175;SDS011;35012;47.200;9.748;2024-03-22T03:18:03;2.50;;;2.40;;
49175;SDS011;35012;47.200;9.748;2024-03-22T03:20:29;2.93;;;2.83;;
49175;SDS011;35012;47.200;9.748;2024-03-22T03:22:54;2.20;;;2.10;;
49175;SDS011;35012;47.200;9.748;2024-03-22T03:25:20;2.17;;;2.07;;
49175;SDS011;35012;47.200;9.748;2024-03-22T03:27:46;2.00;;;1.93;;
49175;SDS011;35012;47.200;9.748;2024-03-22T03:30:11;2.50;;;2.40;;
49175;SDS011;35012;47.200;9.748;2024-03-22T03:32:37;1.57;;;1.57;;
49175;SDS011;35012;47.200;9.748;2024-03-22T03:35:02;2.60;;;2.50;;
49175;SDS011;35012;47.200;9.748;2024-03-22T03:37:28;1.70;;;1.70;;
49175;SDS011;35012;47.200;9.748;2024-03-22T03:39:53;2.93;;;2.33;;
49175;SDS011;35012;47.200;9.748;2024-03-22T03:42:19;2.27;;;2.17;;
49175;SDS011;35012;47.200;9.748;2024-03-22T03:44:44;1.90;;;1.90;;
49175;SDS011;35012;47.200;9.748;2024-03-22T03:47:10;1.57;;;1.57;;
49175;SDS011;35012;47.200;9.748;2024-03-22T03:49:35;1.83;;;1.80;;
49175;SDS011;35012;47.200;9.748;2024-03-22T03:52:00;2.33;;;2.13;;
49175;SDS011;35012;47.200;9.748;2024-03-22T03:54:26;3.13;;;3.03;;
49175;SDS011;35012;47.200;9.748;2024-03-22T03:56:51;2.20;;;2.10;;
49175;SDS011;35012;47.200;9.748;2024-03-22T03:59:17;2.10;;;2.00;;
49175;SDS011;35012;47.200;9.748;2024-03-22T04:01:43;2.10;;;2.00;;
49175;SDS011;35012;47.200;9.748;2024-03-22T04:04:08;2.30;;;2.20;;
49175;SDS011;35012;47.200;9.748;2024-03-22T04:06:34;2.23;;;2.13;;
49175;SDS011;35012;47.200;9.748;2024-03-22T04:08:59;2.30;;;2.20;;
49175;SDS011;35012;47.200;9.748;2024-03-22T04:11:25;2.27;;;2.17;;
49175;SDS011;35012;47.200;9.748;2024-03-22T04:13:51;2.57;;;2.47;;
49175;SDS011;35012;47.200;9.748;2024-03-22T04:16:16;2.53;;;2.43;;
49175;SDS011;35012;47.200;9.748;2024-03-22T04:18:42;2.33;;;2.23;;
49175;SDS011;35012;47.200;9.748;2024-03-22T04:21:07;2.23;;;2.13;;
49175;SDS011;35012;47.200;9.748;2024-03-22T04:23:33;2.10;;;2.00;;
49175;SDS011;35012;47.200;9.748;2024-03-22T04:25:59;2.10;;;2.00;;
49175;SDS011;35012;47.200;9.748;2024-03-22T04:28:27;2.13;;;2.03;;
49175;SDS011;35012;47.200;9.748;2024-03-22T04:31:03;2.03;;;1.93;;
49175;SDS011;35012;47.200;9.748;2024-03-22T04:33:29;2.17;;;2.07;;
49175;SDS011;35012;47.200;9.748;2024-03-22T04:35:54;2.10;;;2.00;;
49175;SDS011;35012;47.200;9.748;2024-03-22T04:38:21;2.00;;;1.90;;
49175;SDS011;35012;47.200;9.748;2024-03-22T04:40:47;1.60;;;1.60;;
49175;SDS011;35012;47.200;9.748;2024-03-22T04:43:12;2.40;;;2.30;;
49175;SDS011;35012;47.200;9.748;2024-03-22T04:45:38;2.40;;;2.30;;
49175;SDS011;35012;47.200;9.748;2024-03-22T04:48:04;2.30;;;2.20;;
49175;SDS011;35012;47.200;9.748;2024-03-22T04:50:30;2.03;;;2.00;;
49175;SDS011;35012;47.200;9.748;2024-03-22T04:52:55;1.90;;;1.90;;
49175;SDS011;35012;47.200;9.748;2024-03-22T04:55:20;1.77;;;1.70;;
49175;SDS011;35012;47.200;9.748;2024-03-22T04:57:46;2.00;;;1.90;;
49175;SDS011;35012;47.200;9.748;2024-03-22T05:00:12;1.90;;;1.90;;
49175;SDS011;35012;47.200;9.748;2024-03-22T05:02:38;2.17;;;2.07;;
49175;SDS011;35012;47.200;9.748;2024-03-22T05:05:03;1.90;;;1.80;;
49175;SDS011;35012;47.200;9.748;2024-03-22T05:07:29;2.20;;;2.10;;
49175;SDS011;35012;47.200;9.748;2024-03-22T05:09:54;2.20;;;2.10;;
49175;SDS011;35012;47.200;9.748;2024-03-22T05:12:20;1.90;;;1.80;;
49175;SDS011;35012;47.200;9.748;2024-03-22T05:14:45;2.70;;;2.50;;
49175;SDS011;35012;47.200;9.748;2024-03-22T05:17:11;2.40;;;2.30;;
49175;SDS011;35012;47.200;9.748;2024-03-22T05:19:36;2.20;;;2.10;;
49175;SDS011;35012;47.200;9.748;2024-03-22T05:22:01;2.20;;;2.10;;
49175;SDS011;35012;47.200;9.748;2024-03-22T05:24:28;2.20;;;2.10;;
49175;SDS011;35012;47.200;9.748;2024-03-22T05:26:53;1.90;;;1.80;;
49175;SDS011;35012;47.200;9.748;2024-03-22T05:29:18;2.37;;;2.27;;
49175;SDS011;35012;47.200;9.748;2024-03-22T05:31:47;2.30;;;2.20;;
49175;SDS011;35012;47.200;9.748;2024-03-22T05:34:13;2.10;;;2.00;;
49175;SDS011;35012;47.200;9.748;2024-03-22T05:36:39;2.07;;;2.00;;
49175;SDS011;35012;47.200;9.748;2024-03-22T05:39:05;1.70;;;1.70;;
49175;SDS011;35012;47.200;9.748;2024-03-22T05:41:30;1.80;;;1.80;;
49175;SDS011;35012;47.200;9.748;2024-03-22T05:43:56;2.60;;;2.30;;
49175;SDS011;35012;47.200;9.748;2024-03-22T05:46:21;3.00;;;2.80;;
49175;SDS011;35012;47.200;9.748;2024-03-22T05:48:46;2.00;;;1.93;;
49175;SDS011;35012;47.200;9.748;2024-03-22T05:51:13;2.10;;;2.00;;
49175;SDS011;35012;47.200;9.748;2024-03-22T05:53:39;2.40;;;2.30;;
49175;SDS011;35012;47.200;9.748;2024-03-22T05:56:04;3.67;;;3.37;;
49175;SDS011;35012;47.200;9.748;2024-03-22T05:58:30;2.50;;;2.30;;
49175;SDS011;35012;47.200;9.748;2024-03-22T06:00:55;2.60;;;2.50;;
49175;SDS011;35012;47.200;9.748;2024-03-22T06:03:21;2.27;;;2.17;;
49175;SDS011;35012;47.200;9.748;2024-03-22T06:05:46;2.23;;;2.13;;
49175;SDS011;35012;47.200;9.748;2024-03-22T06:08:12;2.40;;;2.30;;
49175;SDS011;35012;47.200;9.748;2024-03-22T06:10:37;2.40;;;2.30;;
49175;SDS011;35012;47.200;9.748;2024-03-22T06:13:03;2.60;;;2.50;;
49175;SDS011;35012;47.200;9.748;2024-03-22T06:15:29;2.30;;;2.20;;
49175;SDS011;35012;47.200;9.748;2024-03-22T06:17:54;2.30;;;2.20;;
49175;SDS011;35012;47.200;9.748;2024-03-22T06:20:19;2.30;;;2.20;;
49175;SDS011;35012;47.200;9.748;2024-03-22T06:22:45;2.43;;;2.33;;
49175;SDS011;35012;47.200;9.748;2024-03-22T06:25:10;2.30;;;2.20;;
49175;SDS011;35012;47.200;9.748;2024-03-22T06:27:36;2.33;;;2.23;;
49175;SDS011;35012;47.200;9.748;2024-03-22T06:30:01;1.90;;;1.80;;
49175;SDS011;35012;47.200;9.748;2024-03-22T06:32:26;2.30;;;2.20;;
49175;SDS011;35012;47.200;9.748;2024-03-22T06:34:52;2.20;;;2.10;;
49175;SDS011;35012;47.200;9.748;2024-03-22T06:37:17;2.37;;;2.27;;
49175;SDS011;35012;47.200;9.748;2024-03-22T06:39:43;2.37;;;2.27;;
49175;SDS011;35012;47.200;9.748;2024-03-22T06:42:08;2.27;;;2.10;;
49175;SDS011;35012;47.200;9.748;2024-03-22T06:44:33;2.67;;;2.37;;
49175;SDS011;35012;47.200;9.748;2024-03-22T06:46:59;2.47;;;2.37;;
49175;SDS011;35012;47.200;9.748;2024-03-22T06:49:24;2.00;;;1.90;;
49175;SDS011;35012;47.200;9.748;2024-03-22T06:51:50;1.77;;;1.77;;
49175;SDS011;35012;47.200;9.748;2024-03-22T06:54:15;2.10;;;2.00;;
49175;SDS011;35012;47.200;9.748;2024-03-22T06:56:41;2.10;;;2.00;;
49175;SDS011;35012;47.200;9.748;2024-03-22T06:59:07;1.67;;;1.67;;
49175;SDS011;35012;47.200;9.748;2024-03-22T07:01:32;1.80;;;1.80;;
49175;SDS011;35012;47.200;9.748;2024-03-22T07:03:57;2.10;;;2.00;;
49175;SDS011;35012;47.200;9.748;2024-03-22T07:06:23;1.60;;;1.60;;
49175;SDS011;35012;47.200;9.748;2024-03-22T07:08:48;2.60;;;2.00;;
49175;SDS011;35012;47.200;9.748;2024-03-22T07:11:14;1.77;;;1.73;;
49175;SDS011;35012;47.200;9.748;2024-03-22T07:13:39;1.60;;;1.60;;
49175;SDS011;35012;47.200;9.748;2024-03-22T07:16:04;1.80;;;1.70;;
49175;SDS011;35012;47.200;9.748;2024-03-22T07:18:30;2.03;;;1.93;;
49175;SDS011;35012;47.200;9.748;2024-03-22T07:20:55;1.70;;;1.70;;
49175;SDS011;35012;47.200;9.748;2024-03-22T07:23:22;1.70;;;1.60;;
49175;SDS011;35012;47.200;9.748;2024-03-22T07:25:48;1.73;;;1.70;;
49175;SDS011;35012;47.200;9.748;2024-03-22T07:28:14;1.70;;;1.70;;
49175;SDS011;35012;47.200;9.748;2024-03-22T07:30:39;1.60;;;1.50;;
49175;SDS011;35012;47.200;9.748;2024-03-22T07:33:04;1.87;;;1.77;;
49175;SDS011;35012;47.200;9.748;2024-03-22T07:35:30;1.87;;;1.77;;
49175;SDS011;35012;47.200;9.748;2024-03-22T07:37:56;1.80;;;1.70;;
49175;SDS011;35012;47.200;9.748;2024-03-22T07:40:21;1.57;;;1.57;;
49175;SDS011;35012;47.200;9.748;2024-03-22T07:42:47;1.60;;;1.50;;
49175;SDS011;35012;47.200;9.748;2024-03-22T07:45:12;1.20;;;1.20;;
49175;SDS011;35012;47.200;9.748;2024-03-22T07:47:40;1.67;;;1.57;;
49175;SDS011;35012;47.200;9.748;2024-03-22T07:50:07;1.57;;;1.57;;
49175;SDS011;35012;47.200;9.748;2024-03-22T07:52:33;1.50;;;1.50;;
49175;SDS011;35012;47.200;9.748;2024-03-22T07:54:59;1.60;;;1.60;;
49175;SDS011;35012;47.200;9.748;2024-03-22T07:57:27;2.20;;;1.60;;
49175;SDS011;35012;47.200;9.748;2024-03-22T07:59:52;2.10;;;2.00;;
49175;SDS011;35012;47.200;9.748;2024-03-22T08:02:17;1.47;;;1.47;;
49175;SDS011;35012;47.200;9.748;2024-03-22T08:04:43;2.03;;;1.60;;
49175;SDS011;35012;47.200;9.748;2024-03-22T08:07:08;1.60;;;1.60;;
49175;SDS011;35012;47.200;9.748;2024-03-22T08:09:34;1.57;;;1.57;;
49175;SDS011;35012;47.200;9.748;2024-03-22T08:11:59;1.40;;;1.40;;
49175;SDS011;35012;47.200;9.748;2024-03-22T08:14:25;1.70;;;1.60;;
49175;SDS011;35012;47.200;9.748;2024-03-22T08:16:50;1.40;;;1.40;;
49175;SDS011;35012;47.200;9.748;2024-03-22T08:19:15;1.33;;;1.33;;
49175;SDS011;35012;47.200;9.748;2024-03-22T08:21:41;2.50;;;1.87;;
49175;SDS011;35012;47.200;9.748;2024-03-22T08:24:06;1.23;;;1.23;;
49175;SDS011;35012;47.200;9.748;2024-03-22T08:26:31;1.10;;;1.10;;
49175;SDS011;35012;47.200;9.748;2024-03-22T08:28:57;1.00;;;1.00;;
49175;SDS011;35012;47.200;9.748;2024-03-22T08:31:22;1.20;;;1.20;;
49175;SDS011;35012;47.200;9.748;2024-03-22T08:33:52;1.20;;;1.20;;
49175;SDS011;35012;47.200;9.748;2024-03-22T08:36:17;1.30;;;1.30;;
49175;SDS011;35012;47.200;9.748;2024-03-22T08:38:43;1.30;;;1.30;;
49175;SDS011;35012;47.200;9.748;2024-03-22T08:41:08;1.10;;;1.10;;
49175;SDS011;35012;47.200;9.748;2024-03-22T08:43:33;1.53;;;1.43;;
49175;SDS011;35012;47.200;9.748;2024-03-22T08:45:59;2.07;;;1.97;;
49175;SDS011;35012;47.200;9.748;2024-03-22T08:48:24;3.33;;;3.23;;
49175;SDS011;35012;47.200;9.748;2024-03-22T08:50:50;4.40;;;4.20;;
49175;SDS011;35012;47.200;9.748;2024-03-22T08:53:15;4.00;;;3.90;;
49175;SDS011;35012;47.200;9.748;2024-03-22T08:55:47;5.10;;;4.90;;
49175;SDS011;35012;47.200;9.748;2024-03-22T08:58:13;4.13;;;3.93;;
49175;SDS011;35012;47.200;9.748;2024-03-22T09:00:38;3.73;;;3.57;;
49175;SDS011;35012;47.200;9.748;2024-03-22T09:03:04;3.63;;;3.47;;
49175;SDS011;35012;47.200;9.748;2024-03-22T09:05:29;3.70;;;3.60;;
49175;SDS011;35012;47.200;9.748;2024-03-22T09:07:55;2.90;;;2.80;;
49175;SDS011;35012;47.200;9.748;2024-03-22T09:10:22;2.27;;;2.17;;
49175;SDS011;35012;47.200;9.748;2024-03-22T09:12:47;2.53;;;2.43;;
49175;SDS011;35012;47.200;9.748;2024-03-22T09:15:12;1.80;;;1.80;;
49175;SDS011;35012;47.200;9.748;2024-03-22T09:17:38;1.80;;;1.80;;
49175;SDS011;35012;47.200;9.748;2024-03-22T09:20:04;1.93;;;1.87;;
49175;SDS011;35012;47.200;9.748;2024-03-22T09:22:30;2.10;;;2.00;;
49175;SDS011;35012;47.200;9.748;2024-03-22T09:24:57;1.77;;;1.77;;
49175;SDS011;35012;47.200;9.748;2024-03-22T09:27:23;2.03;;;1.93;;
49175;SDS011;35012;47.200;9.748;2024-03-22T09:29:48;1.83;;;1.73;;
49175;SDS011;35012;47.200;9.748;2024-03-22T09:32:14;1.60;;;1.60;;
49175;SDS011;35012;47.200;9.748;2024-03-22T09:34:39;1.47;;;1.47;;
49175;SDS011;35012;47.200;9.748;2024-03-22T09:37:05;1.20;;;1.20;;
49175;SDS011;35012;47.200;9.748;2024-03-22T09:39:31;1.50;;;1.40;;
49175;SDS011;35012;47.200;9.748;2024-03-22T09:41:57;1.60;;;1.50;;
49175;SDS011;35012;47.200;9.748;2024-03-22T09:44:24;1.50;;;1.50;;
49175;SDS011;35012;47.200;9.748;2024-03-22T09:46:52;1.50;;;1.50;;
49175;SDS011;35012;47.200;9.748;2024-03-22T09:49:17;1.60;;;1.50;;
49175;SDS011;35012;47.200;9.748;2024-03-22T09:51:43;1.65;;;1.55;;
49175;SDS011;35012;47.200;9.748;2024-03-22T09:54:09;1.50;;;1.50;;
49175;SDS011;35012;47.200;9.748;2024-03-22T09:56:35;1.90;;;1.80;;
49175;SDS011;35012;47.200;9.748;2024-03-22T09:59:02;1.65;;;1.55;;
49175;SDS011;35012;47.200;9.748;2024-03-22T10:01:28;1.73;;;1.63;;
49175;SDS011;35012;47.200;9.748;2024-03-22T10:03:54;1.50;;;1.50;;
49175;SDS011;35012;47.200;9.748;2024-03-22T10:06:20;1.63;;;1.52;;
49175;SDS011;35012;47.200;9.748;2024-03-22T10:08:45;1.40;;;1.40;;
49175;SDS011;35012;47.200;9.748;2024-03-22T10:11:11;1.30;;;1.30;;
49175;SDS011;35012;47.200;9.748;2024-03-22T10:13:36;1.45;;;1.42;;
49175;SDS011;35012;47.200;9.748;2024-03-22T10:16:02;1.40;;;1.40;;
49175;SDS011;35012;47.200;9.748;2024-03-22T10:18:28;1.10;;;1.10;;
49175;SDS011;35012;47.200;9.748;2024-03-22T10:21:05;1.33;;;1.33;;
49175;SDS011;35012;47.200;9.748;2024-03-22T10:23:31;1.10;;;1.10;;
49175;SDS011;35012;47.200;9.748;2024-03-22T10:25:57;1.20;;;1.17;;
49175;SDS011;35012;47.200;9.748;2024-03-22T10:28:26;1.60;;;1.60;;
49175;SDS011;35012;47.200;9.748;2024-03-22T10:30:52;1.42;;;1.42;;
49175;SDS011;35012;47.200;9.748;2024-03-22T10:33:18;1.80;;;1.70;;
49175;SDS011;35012;47.200;9.748;2024-03-22T10:35:44;1.55;;;1.55;;
49175;SDS011;35012;47.200;9.748;2024-03-22T10:38:10;1.45;;;1.42;;
49175;SDS011;35012;47.200;9.748;2024-03-22T10:40:38;1.60;;;1.50;;
49175;SDS011;35012;47.200;9.748;2024-03-22T10:43:04;1.10;;;1.10;;
49175;SDS011;35012;47.200;9.748;2024-03-22T10:45:29;1.30;;;1.30;;
49175;SDS011;35012;47.200;9.748;2024-03-22T10:47:55;1.42;;;1.40;;
49175;SDS011;35012;47.200;9.748;2024-03-22T10:50:20;1.45;;;1.45;;
49175;SDS011;35012;47.200;9.748;2024-03-22T10:52:48;1.90;;;1.60;;
49175;SDS011;35012;47.200;9.748;2024-03-22T10:55:27;1.58;;;1.48;;
49175;SDS011;35012;47.200;9.748;2024-03-22T10:57:55;1.35;;;1.30;;
49175;SDS011;35012;47.200;9.748;2024-03-22T11:00:31;2.47;;;1.52;;
49175;SDS011;35012;47.200;9.748;2024-03-22T11:02:56;1.30;;;1.30;;
49175;SDS011;35012;47.200;9.748;2024-03-22T11:05:22;1.48;;;1.48;;
49175;SDS011;35012;47.200;9.748;2024-03-22T11:07:47;1.23;;;1.23;;
49175;SDS011;35012;47.200;9.748;2024-03-22T11:10:13;1.20;;;1.20;;
49175;SDS011;35012;47.200;9.748;2024-03-22T11:12:39;1.27;;;1.27;;
49175;SDS011;35012;47.200;9.748;2024-03-22T11:15:05;1.40;;;1.40;;
49175;SDS011;35012;47.200;9.748;2024-03-22T11:17:30;1.27;;;1.27;;
49175;SDS011;35012;47.200;9.748;2024-03-22T11:19:56;1.40;;;1.40;;
49175;SDS011;35012;47.200;9.748;2024-03-22T11:22:21;1.30;;;1.20;;
49175;SDS011;35012;47.200;9.748;2024-03-22T11:24:46;1.48;;;1.42;;
49175;SDS011;35012;47.200;9.748;2024-03-22T11:27:12;1.30;;;1.30;;
49175;SDS011;35012;47.200;9.748;2024-03-22T11:29:37;1.30;;;1.30;;
49175;SDS011;35012;47.200;9.748;2024-03-22T11:32:09;1.33;;;1.33;;
49175;SDS011;35012;47.200;9.748;2024-03-22T11:34:38;1.50;;;1.50;;
49175;SDS011;35012;47.200;9.748;2024-03-22T11:37:04;3.42;;;1.70;;
49175;SDS011;35012;47.200;9.748;2024-03-22T11:39:32;2.22;;;2.13;;
49175;SDS011;35012;47.200;9.748;2024-03-22T11:41:57;2.10;;;2.00;;
49175;SDS011;35012;47.200;9.748;2024-03-22T11:44:23;2.17;;;2.08;;
49175;SDS011;35012;47.200;9.748;2024-03-22T11:46:51;2.65;;;2.55;;
49175;SDS011;35012;47.200;9.748;2024-03-22T11:49:17;2.40;;;2.30;;
49175;SDS011;35012;47.200;9.748;2024-03-22T11:51:42;2.30;;;2.20;;
49175;SDS011;35012;47.200;9.748;2024-03-22T11:54:07;2.42;;;2.33;;
49175;SDS011;35012;47.200;9.748;2024-03-22T11:56:34;3.42;;;3.33;;
49175;SDS011;35012;47.200;9.748;2024-03-22T11:59:00;4.18;;;4.00;;
49175;SDS011;35012;47.200;9.748;2024-03-22T12:01:26;5.15;;;4.95;;
49175;SDS011;35012;47.200;9.748;2024-03-22T12:03:51;5.15;;;4.95;;
49175;SDS011;35012;47.200;9.748;2024-03-22T12:06:17;6.05;;;5.80;;
49175;SDS011;35012;47.200;9.748;2024-03-22T12:08:42;6.65;;;6.35;;
49175;SDS011;35012;47.200;9.748;2024-03-22T12:11:08;6.00;;;5.80;;
49175;SDS011;35012;47.200;9.748;2024-03-22T12:13:34;6.60;;;6.30;;
49175;SDS011;35012;47.200;9.748;2024-03-22T12:16:00;5.38;;;5.18;;
49175;SDS011;35012;47.200;9.748;2024-03-22T12:18:26;6.05;;;5.85;;
49175;SDS011;35012;47.200;9.748;2024-03-22T12:20:51;5.50;;;5.30;;
49175;SDS011;35012;47.200;9.748;2024-03-22T12:23:17;5.90;;;5.70;;
49175;SDS011;35012;47.200;9.748;2024-03-22T12:25:42;5.22;;;5.03;;
49175;SDS011;35012;47.200;9.748;2024-03-22T12:28:08;4.03;;;3.92;;
49175;SDS011;35012;47.200;9.748;2024-03-22T12:30:33;3.92;;;3.83;;
49175;SDS011;35012;47.200;9.748;2024-03-22T12:32:58;4.15;;;3.95;;
49175;SDS011;35012;47.200;9.748;2024-03-22T12:35:24;4.30;;;4.10;;
49175;SDS011;35012;47.200;9.748;2024-03-22T12:37:51;2.80;;;2.70;;
49175;SDS011;35012;47.200;9.748;2024-03-22T12:40:16;2.80;;;2.70;;
49175;SDS011;35012;47.200;9.748;2024-03-22T12:42:41;2.30;;;2.20;;
49175;SDS011;35012;47.200;9.748;2024-03-22T12:45:07;2.20;;;2.10;;
49175;SDS011;35012;47.200;9.748;2024-03-22T12:47:33;1.90;;;1.90;;
49175;SDS011;35012;47.200;9.748;2024-03-22T12:49:58;2.05;;;1.95;;
49175;SDS011;35012;47.200;9.748;2024-03-22T12:52:23;1.83;;;1.83;;
49175;SDS011;35012;47.200;9.748;2024-03-22T12:54:49;1.75;;;1.75;;
49175;SDS011;35012;47.200;9.748;2024-03-22T12:57:14;2.22;;;2.13;;
49175;SDS011;35012;47.200;9.748;2024-03-22T12:59:39;2.20;;;2.10;;
49175;SDS011;35012;47.200;9.748;2024-03-22T13:02:05;2.42;;;2.33;;
49175;SDS011;35012;47.200;9.748;2024-03-22T13:04:31;2.55;;;2.45;;
49175;SDS011;35012;47.200;9.748;2024-03-22T13:06:56;3.22;;;3.13;;
49175;SDS011;35012;47.200;9.748;2024-03-22T13:09:22;2.67;;;2.58;;
49175;SDS011;35012;47.200;9.748;2024-03-22T13:11:47;3.20;;;3.10;;
49175;SDS011;35012;47.200;9.748;2024-03-22T13:14:13;3.13;;;3.03;;
49175;SDS011;35012;47.200;9.748;2024-03-22T13:16:39;3.00;;;2.90;;
49175;SDS011;35012;47.200;9.748;2024-03-22T13:19:04;3.00;;;2.90;;
49175;SDS011;35012;47.200;9.748;2024-03-22T13:21:30;3.30;;;3.10;;
49175;SDS011;35012;47.200;9.748;2024-03-22T13:23:56;3.67;;;3.45;;
49175;SDS011;35012;47.200;9.748;2024-03-22T13:26:21;3.20;;;3.10;;
49175;SDS011;35012;47.200;9.748;2024-03-22T13:28:47;3.20;;;3.10;;
49175;SDS011;35012;47.200;9.748;2024-03-22T13:31:12;3.35;;;3.25;;
49175;SDS011;35012;47.200;9.748;2024-03-22T13:33:38;3.42;;;3.33;;
49175;SDS011;35012;47.200;9.748;2024-03-22T13:36:03;3.30;;;3.20;;
49175;SDS011;35012;47.200;9.748;2024-03-22T13:38:30;3.63;;;3.42;;
49175;SDS011;35012;47.200;9.748;2024-03-22T13:40:56;3.33;;;3.22;;
49175;SDS011;35012;47.200;9.748;2024-03-22T13:43:22;2.60;;;2.50;;
49175;SDS011;35012;47.200;9.748;2024-03-22T13:45:48;2.20;;;2.10;;
49175;SDS011;35012;47.200;9.748;2024-03-22T13:48:15;1.80;;;1.73;;
49175;SDS011;35012;47.200;9.748;2024-03-22T13:50:41;1.70;;;1.70;;
49175;SDS011;35012;47.200;9.748;2024-03-22T13:53:06;1.75;;;1.70;;
49175;SDS011;35012;47.200;9.748;2024-03-22T13:55:32;1.92;;;1.83;;
49175;SDS011;35012;47.200;9.748;2024-03-22T13:57:57;2.22;;;2.13;;
49175;SDS011;35012;47.200;9.748;2024-03-22T14:00:23;3.13;;;3.03;;
49175;SDS011;35012;47.200;9.748;2024-03-22T14:02:50;3.77;;;3.67;;
49175;SDS011;35012;47.200;9.748;2024-03-22T14:05:18;3.90;;;3.60;;
49175;SDS011;35012;47.200;9.748;2024-03-22T14:07:43;3.87;;;3.73;;
49175;SDS011;35012;47.200;9.748;2024-03-22T14:10:09;3.53;;;3.43;;
49175;SDS011;35012;47.200;9.748;2024-03-22T14:12:34;3.60;;;3.50;;
49175;SDS011;35012;47.200;9.748;2024-03-22T14:15:00;2.70;;;2.60;;
49175;SDS011;35012;47.200;9.748;2024-03-22T14:17:25;2.30;;;2.20;;
49175;SDS011;35012;47.200;9.748;2024-03-22T14:19:50;2.20;;;2.10;;
49175;SDS011;35012;47.200;9.748;2024-03-22T14:22:17;2.00;;;1.90;;
49175;SDS011;35012;47.200;9.748;2024-03-22T14:24:43;1.67;;;1.67;;
49175;SDS011;35012;47.200;9.748;2024-03-22T14:27:08;1.60;;;1.60;;
49175;SDS011;35012;47.200;9.748;2024-03-22T14:29:34;1.83;;;1.77;;
49175;SDS011;35012;47.200;9.748;2024-03-22T14:31:59;1.63;;;1.63;;
49175;SDS011;35012;47.200;9.748;2024-03-22T14:34:25;1.83;;;1.73;;
49175;SDS011;35012;47.200;9.748;2024-03-22T14:36:50;2.77;;;2.67;;
49175;SDS011;35012;47.200;9.748;2024-03-22T14:39:16;1.43;;;1.43;;